createdAt,value
2023-02-11T00:01:43.648Z,80.00
2023-02-11T00:04:12.670Z,80.00
2023-02-11T00:06:41.787Z,80.00
2023-02-11T00:09:12.494Z,80.10
2023-02-11T00:11:41.554Z,80.20
2023-02-11T00:14:14.217Z,80.50
2023-02-11T00:16:43.322Z,80.70
2023-02-11T00:19:12.396Z,80.90
2023-02-11T00:21:42.045Z,81.10
2023-02-11T00:24:11.062Z,81.20
2023-02-11T00:26:40.235Z,81.40
2023-02-11T00:29:09.322Z,81.40
2023-02-11T00:31:39.892Z,81.40
2023-02-11T00:34:09.127Z,81.40
2023-02-11T00:36:38.188Z,81.50
2023-02-11T00:39:07.940Z,81.40
2023-02-11T00:41:38.066Z,81.50
2023-02-11T00:44:07.202Z,81.40
2023-02-11T00:46:36.334Z,81.40
2023-02-11T00:49:06.872Z,81.20
2023-02-11T00:51:36.090Z,81.10
2023-02-11T00:58:25.480Z,80.90
2023-02-11T01:00:55.482Z,80.70
2023-02-11T01:03:24.886Z,80.70
2023-02-11T01:05:55.518Z,80.70
2023-02-11T01:08:24.648Z,80.70
2023-02-11T01:10:58.208Z,80.80
2023-02-11T01:13:27.596Z,80.90
2023-02-11T01:15:56.897Z,81.00
2023-02-11T01:18:26.716Z,80.90
2023-02-11T01:20:57.244Z,81.00
2023-02-11T01:23:26.497Z,81.00
2023-02-11T01:25:55.796Z,81.00
2023-02-11T01:28:27.687Z,80.90
2023-02-11T01:30:57.114Z,80.90
2023-02-11T01:33:26.239Z,80.80
2023-02-11T01:35:56.680Z,80.80
2023-02-11T01:38:27.685Z,80.80
2023-02-11T01:40:58.816Z,81.70
2023-02-11T01:43:29.676Z,80.90
2023-02-11T01:46:14.197Z,81.00
2023-02-11T01:48:45.683Z,81.20
2023-02-11T01:51:21.715Z,81.40
2023-02-11T01:54:09.536Z,81.60
2023-02-11T01:57:01.005Z,81.80
2023-02-11T01:59:31.618Z,82.00
2023-02-11T02:02:04.207Z,82.10
2023-02-11T02:04:40.055Z,81.90
2023-02-11T02:07:18.301Z,82.10
2023-02-11T02:09:53.909Z,82.40
2023-02-11T02:12:23.024Z,82.50
2023-02-11T02:14:52.081Z,82.60
2023-02-11T02:17:30.258Z,82.90
2023-02-11T02:20:29.853Z,83.10
2023-02-11T02:23:22.856Z,83.30
2023-02-11T02:26:19.990Z,83.50
2023-02-11T02:29:23.224Z,83.60
2023-02-11T02:32:21.701Z,83.70
2023-02-11T02:34:55.406Z,83.90
2023-02-11T02:37:35.031Z,84.10
2023-02-11T02:40:10.389Z,84.40
2023-02-11T02:42:41.421Z,84.60
2023-02-11T02:45:13.303Z,84.60
2023-02-11T02:47:42.464Z,84.60
2023-02-11T02:50:14.880Z,84.60
2023-02-11T02:52:52.049Z,84.60
2023-02-11T02:55:38.063Z,84.50
2023-02-11T02:58:28.443Z,84.30
2023-02-11T03:01:04.948Z,84.20
2023-02-11T03:03:44.511Z,84.10
2023-02-11T03:06:18.893Z,84.10
2023-02-11T03:08:51.453Z,83.90
2023-02-11T03:11:21.743Z,83.80
2023-02-11T03:13:52.034Z,83.70
2023-02-11T03:16:25.094Z,83.60
2023-02-11T03:18:58.429Z,83.50
2023-02-11T03:21:30.526Z,83.40
2023-02-11T03:24:05.206Z,83.30
2023-02-11T03:26:40.140Z,83.20
2023-02-11T03:29:15.957Z,83.10
2023-02-11T03:31:55.849Z,82.90
2023-02-11T03:34:31.251Z,82.70
2023-02-11T03:37:08.841Z,82.70
2023-02-11T03:39:42.052Z,82.50
2023-02-11T03:42:14.044Z,82.50
2023-02-11T03:44:49.616Z,82.40
2023-02-11T03:47:22.808Z,82.40
2023-02-11T03:49:56.859Z,82.30
2023-02-11T03:52:28.262Z,82.20
2023-02-11T03:54:58.227Z,82.00
2023-02-11T03:57:27.179Z,82.00
2023-02-11T03:59:57.904Z,81.90
2023-02-11T04:02:30.921Z,81.70
2023-02-11T04:05:00.170Z,81.70
2023-02-11T04:07:31.042Z,81.60
2023-02-11T04:10:00.232Z,81.60
2023-02-11T04:12:29.227Z,81.60
2023-02-11T04:14:58.258Z,81.50
2023-02-11T04:17:27.261Z,81.50
2023-02-11T04:19:56.251Z,81.50
2023-02-11T04:22:25.248Z,81.50
2023-02-11T04:29:14.873Z,81.60
2023-02-11T04:31:44.094Z,81.50
2023-02-11T04:34:13.377Z,81.50
2023-02-11T04:36:42.785Z,81.60
2023-02-11T04:39:11.837Z,81.80
2023-02-11T04:41:40.868Z,82.00
2023-02-11T04:44:09.901Z,82.10
2023-02-11T04:46:40.466Z,82.40
2023-02-11T04:49:09.494Z,82.50
2023-02-11T04:51:38.537Z,82.70
2023-02-11T04:54:07.608Z,82.80
2023-02-11T04:56:36.650Z,83.00
2023-02-11T04:59:06.240Z,83.20
2023-02-11T05:01:35.588Z,83.20
2023-02-11T05:04:06.238Z,83.30
2023-02-11T05:06:35.252Z,83.40
2023-02-11T05:09:04.244Z,83.50
2023-02-11T05:11:33.256Z,83.50
2023-02-11T05:14:02.292Z,83.50
2023-02-11T05:16:31.369Z,83.50
2023-02-11T05:19:00.815Z,83.50
2023-02-11T05:21:31.280Z,83.60
2023-02-11T05:24:00.304Z,83.50
2023-02-11T05:26:29.430Z,83.50
2023-02-11T05:28:58.542Z,83.40
2023-02-11T05:31:27.747Z,83.30
2023-02-11T05:33:56.926Z,83.40
2023-02-11T05:36:26.042Z,83.30
2023-02-11T05:38:56.482Z,83.30
2023-02-11T05:41:25.504Z,83.30
2023-02-11T05:43:54.547Z,83.10
2023-02-11T05:46:23.647Z,83.10
2023-02-11T05:48:52.898Z,83.00
2023-02-11T05:51:21.919Z,82.90
2023-02-11T05:53:50.984Z,82.80
2023-02-11T05:56:21.428Z,82.70
2023-02-11T05:58:50.645Z,82.80
2023-02-11T06:01:19.880Z,82.80
2023-02-11T06:03:50.154Z,82.80
2023-02-11T06:06:19.479Z,82.80
2023-02-11T06:08:48.610Z,82.80
2023-02-11T06:11:18.646Z,82.80
2023-02-11T06:13:49.103Z,82.80
2023-02-11T06:16:18.333Z,82.80
2023-02-11T06:18:47.422Z,82.90
2023-02-11T06:21:16.568Z,82.90
2023-02-11T06:23:45.692Z,83.00
2023-02-11T06:26:20.180Z,82.90
2023-02-11T06:28:51.330Z,83.00
2023-02-11T06:31:21.083Z,82.90
2023-02-11T06:33:50.566Z,83.00
2023-02-11T06:36:21.561Z,82.90
2023-02-11T06:38:51.403Z,82.80
2023-02-11T06:41:21.270Z,82.80
2023-02-11T06:43:53.448Z,82.80
2023-02-11T06:46:23.020Z,82.70
2023-02-11T06:48:52.055Z,82.70
2023-02-11T06:51:21.133Z,82.80
2023-02-11T06:53:50.545Z,82.80
2023-02-11T06:56:21.967Z,82.70
2023-02-11T06:58:55.495Z,82.70
2023-02-11T07:01:25.842Z,82.60
2023-02-11T07:03:55.438Z,82.60
2023-02-11T07:06:27.834Z,82.60
2023-02-11T07:08:57.760Z,82.60
2023-02-11T07:11:29.124Z,82.50
2023-02-11T07:14:01.804Z,82.40
2023-02-11T07:16:31.000Z,82.50
2023-02-11T07:19:00.138Z,82.20
2023-02-11T07:21:29.246Z,82.20
2023-02-11T07:23:58.326Z,82.10
2023-02-11T07:26:27.393Z,82.00
2023-02-11T07:28:56.682Z,82.00
2023-02-11T07:31:28.917Z,81.90
2023-02-11T07:34:00.354Z,81.90
2023-02-11T07:36:29.696Z,81.90
2023-02-11T07:38:58.961Z,81.90
2023-02-11T07:41:28.522Z,81.70
2023-02-11T07:44:00.653Z,81.70
2023-02-11T07:46:31.155Z,81.60
2023-02-11T07:49:00.458Z,81.50
2023-02-11T07:51:31.260Z,81.40
2023-02-11T07:54:01.524Z,81.30
2023-02-11T07:56:31.012Z,81.30
2023-02-11T07:59:03.246Z,81.20
2023-02-11T08:01:33.737Z,81.10
2023-02-11T08:04:03.391Z,81.00
2023-02-11T08:06:34.233Z,80.90
2023-02-11T08:09:07.016Z,80.90
2023-02-11T08:11:36.471Z,80.70
2023-02-11T08:14:05.582Z,80.60
2023-02-11T08:16:37.359Z,80.40
2023-02-11T08:19:08.700Z,80.30
2023-02-11T08:21:37.538Z,80.30
2023-02-11T08:24:11.026Z,80.20
2023-02-11T08:26:40.198Z,80.10
2023-02-11T08:29:11.217Z,80.00
2023-02-11T08:31:43.585Z,79.80
2023-02-11T08:34:14.359Z,79.80
2023-02-11T08:36:45.025Z,79.60
2023-02-11T08:39:19.560Z,79.60
2023-02-11T08:41:50.042Z,79.40
2023-02-11T08:44:19.685Z,79.40
2023-02-11T08:46:50.864Z,79.20
2023-02-11T08:49:20.239Z,79.10
2023-02-11T08:51:50.118Z,79.10
2023-02-11T08:54:19.650Z,78.90
2023-02-11T08:56:54.048Z,78.80
2023-02-11T08:59:23.120Z,78.80
2023-02-11T09:01:53.718Z,78.70
2023-02-11T09:04:22.952Z,78.50
2023-02-11T09:06:52.028Z,78.50
2023-02-11T09:09:21.118Z,78.40
2023-02-11T09:11:50.164Z,78.50
2023-02-11T09:14:21.570Z,78.60
2023-02-11T09:16:51.311Z,78.60
2023-02-11T09:19:23.221Z,78.60
2023-02-11T09:21:52.350Z,78.60
2023-02-11T09:24:21.448Z,78.50
2023-02-11T09:26:50.825Z,78.60
2023-02-11T09:29:19.845Z,78.50
2023-02-11T09:31:49.927Z,78.60
2023-02-11T09:34:19.097Z,78.50
2023-02-11T09:36:49.634Z,78.50
2023-02-11T09:39:20.332Z,78.60
2023-02-11T09:42:10.887Z,78.50
2023-02-11T09:44:40.949Z,78.60
2023-02-11T09:47:26.868Z,78.50
2023-02-11T09:50:01.339Z,78.40
2023-02-11T09:52:41.344Z,78.40
2023-02-11T09:55:19.786Z,78.40
2023-02-11T09:57:50.053Z,78.40
2023-02-11T10:00:25.950Z,78.40
2023-02-11T10:03:32.577Z,78.30
2023-02-11T10:06:20.134Z,78.30
2023-02-11T10:09:00.614Z,78.30
2023-02-11T10:11:37.828Z,78.30
2023-02-11T10:14:20.472Z,78.30
2023-02-11T10:17:02.164Z,78.30
2023-02-11T10:19:47.346Z,78.10
2023-02-11T10:22:20.465Z,78.80
2023-02-11T10:24:55.178Z,77.90
2023-02-11T10:27:32.062Z,78.00
2023-02-11T10:30:05.465Z,77.90
2023-02-11T10:32:40.292Z,77.90
2023-02-11T10:35:17.996Z,77.70
2023-02-11T10:37:47.103Z,77.60
2023-02-11T10:40:20.866Z,77.50
2023-02-11T10:42:55.488Z,77.60
2023-02-11T10:45:31.683Z,77.40
2023-02-11T10:48:01.881Z,77.40
2023-02-11T10:50:34.941Z,77.40
2023-02-11T10:53:24.276Z,77.40
2023-02-11T10:55:58.160Z,77.30
2023-02-11T10:58:30.346Z,77.40
2023-02-11T11:01:01.512Z,77.40
2023-02-11T11:03:36.888Z,77.40
2023-02-11T11:06:09.212Z,77.30
2023-02-11T11:08:44.109Z,77.30
2023-02-11T11:11:17.083Z,77.30
2023-02-11T11:13:58.267Z,77.10
2023-02-11T11:16:29.655Z,76.90
2023-02-11T11:19:21.429Z,76.80
2023-02-11T11:21:52.036Z,76.70
2023-02-11T11:24:26.825Z,76.60
2023-02-11T11:27:01.697Z,76.80
2023-02-11T11:29:36.624Z,76.70
2023-02-11T11:32:12.714Z,76.70
2023-02-11T11:34:43.678Z,76.60
2023-02-11T11:37:15.609Z,76.40
2023-02-11T11:39:55.144Z,76.20
2023-02-11T11:42:29.723Z,76.00
2023-02-11T11:45:01.156Z,75.80
2023-02-11T11:47:42.602Z,75.70
2023-02-11T11:50:32.012Z,75.40
2023-02-11T11:53:05.743Z,75.20
2023-02-11T11:55:39.240Z,75.10
2023-02-11T11:58:16.552Z,75.00
2023-02-11T12:00:55.545Z,74.80
2023-02-11T12:04:01.435Z,74.50
2023-02-11T12:06:41.186Z,74.10
2023-02-11T12:09:21.358Z,74.00
2023-02-11T12:12:32.364Z,73.80
2023-02-11T12:15:14.960Z,73.10
2023-02-11T12:18:02.185Z,73.00
2023-02-11T12:20:44.770Z,72.70
2023-02-11T12:23:31.418Z,72.40
2023-02-11T12:26:11.377Z,72.00
2023-02-11T12:28:46.008Z,71.70
2023-02-11T12:31:27.382Z,71.50
2023-02-11T12:34:05.989Z,71.00
2023-02-11T12:36:47.468Z,71.00
2023-02-11T12:39:27.175Z,70.90
2023-02-11T12:42:32.076Z,70.50
2023-02-11T12:45:20.976Z,70.50
2023-02-11T12:48:06.652Z,70.30
2023-02-11T12:50:44.164Z,70.00
2023-02-11T12:53:45.889Z,69.90
2023-02-11T12:56:18.846Z,69.60
2023-02-11T12:58:51.547Z,69.70
2023-02-11T13:01:23.761Z,69.80
2023-02-11T13:04:00.354Z,69.40
2023-02-11T13:06:35.795Z,69.20
2023-02-11T13:09:07.393Z,68.90
2023-02-11T13:11:41.445Z,68.80
2023-02-11T13:14:17.829Z,68.70
2023-02-11T13:16:48.586Z,68.50
2023-02-11T13:19:27.755Z,68.40
2023-02-11T13:22:05.549Z,68.40
2023-02-11T13:24:42.535Z,68.30
2023-02-11T13:27:23.757Z,68.20
2023-02-11T13:30:34.672Z,68.20
2023-02-11T13:33:19.663Z,67.90
2023-02-11T13:36:17.109Z,68.00
2023-02-11T13:39:01.808Z,67.70
2023-02-11T13:41:34.055Z,67.60
2023-02-11T13:44:06.922Z,67.60
2023-02-11T13:47:00.030Z,67.50
2023-02-11T13:49:40.935Z,67.30
2023-02-11T13:52:25.969Z,67.20
2023-02-11T13:54:57.244Z,67.00
2023-02-11T13:57:32.341Z,67.00
2023-02-11T14:00:02.805Z,66.80
2023-02-11T14:02:52.509Z,67.00
2023-02-11T14:05:46.524Z,66.80
2023-02-11T14:08:40.085Z,66.70
2023-02-11T14:11:14.796Z,66.60
2023-02-11T14:14:03.443Z,66.50
2023-02-11T14:16:38.293Z,66.00
2023-02-11T14:19:09.811Z,66.10
2023-02-11T14:21:40.958Z,65.80
2023-02-11T14:24:50.082Z,65.80
2023-02-11T14:27:43.331Z,65.60
2023-02-11T14:30:47.298Z,65.70
2023-02-11T14:33:57.030Z,65.60
2023-02-11T14:36:56.088Z,65.80
2023-02-11T14:39:38.721Z,65.80
2023-02-11T14:42:15.016Z,65.80
2023-02-11T14:44:44.063Z,65.80
2023-02-11T14:47:19.896Z,66.10
2023-02-11T14:49:50.634Z,65.80
2023-02-11T14:52:27.605Z,65.90
2023-02-11T14:55:07.484Z,65.80
2023-02-11T14:57:38.046Z,65.80
2023-02-11T15:00:18.813Z,65.90
2023-02-11T15:02:48.286Z,66.40
2023-02-11T15:05:26.124Z,66.80
2023-02-11T15:07:57.183Z,67.20
2023-02-11T15:10:33.886Z,67.80
2023-02-11T15:13:05.776Z,68.20
2023-02-11T15:15:37.367Z,68.50
2023-02-11T15:18:07.077Z,68.80
2023-02-11T15:20:37.101Z,69.20
2023-02-11T15:23:10.518Z,69.50
2023-02-11T15:25:46.407Z,69.90
2023-02-11T15:28:22.996Z,70.00
2023-02-11T15:30:59.606Z,70.20
2023-02-11T15:33:30.254Z,70.20
2023-02-11T15:36:01.217Z,70.20
2023-02-11T15:38:30.991Z,70.40
2023-02-11T15:41:02.159Z,70.50
2023-02-11T15:43:46.406Z,70.60
2023-02-11T15:46:18.007Z,70.80
2023-02-11T15:48:49.945Z,70.80
2023-02-11T15:51:22.917Z,71.00
2023-02-11T15:53:56.979Z,71.20
2023-02-11T15:56:30.790Z,71.20
2023-02-11T15:59:10.811Z,71.20
2023-02-11T16:01:41.089Z,71.40
2023-02-11T16:04:18.091Z,72.30
2023-02-11T16:06:48.741Z,71.60
2023-02-11T16:09:31.643Z,71.80
2023-02-11T16:12:03.620Z,71.90
2023-02-11T16:14:37.165Z,72.00
2023-02-11T16:17:10.776Z,72.10
2023-02-11T16:19:46.395Z,72.10
2023-02-11T16:22:19.298Z,72.10
2023-02-11T16:24:51.178Z,72.10
2023-02-11T16:27:23.903Z,72.00
2023-02-11T16:29:54.863Z,72.00
2023-02-11T16:32:25.607Z,72.00
2023-02-11T16:34:57.988Z,71.90
2023-02-11T16:37:27.599Z,72.00
2023-02-11T16:39:57.167Z,71.90
2023-02-11T16:42:26.291Z,71.80
2023-02-11T16:44:56.859Z,71.80
2023-02-11T16:47:28.119Z,71.60
2023-02-11T16:49:57.524Z,71.40
2023-02-11T16:52:27.601Z,71.30
2023-02-11T16:54:56.741Z,71.20
2023-02-11T16:57:29.991Z,70.90
2023-02-11T17:00:01.025Z,70.60
2023-02-11T17:02:32.226Z,70.10
2023-02-11T17:05:03.772Z,70.10
2023-02-11T17:07:32.967Z,69.80
2023-02-11T17:10:02.261Z,69.50
2023-02-11T17:12:31.676Z,69.30
2023-02-11T17:15:02.110Z,69.00
2023-02-11T17:17:31.131Z,68.90
2023-02-11T17:20:00.252Z,68.80
2023-02-11T17:22:29.329Z,68.80
2023-02-11T17:24:58.840Z,68.80
2023-02-11T17:27:27.928Z,68.70
2023-02-11T17:29:57.133Z,68.60
2023-02-11T17:32:27.549Z,68.50
2023-02-11T17:34:56.787Z,68.40
2023-02-11T17:37:25.916Z,68.30
2023-02-11T17:39:54.949Z,68.30
2023-02-11T17:42:24.001Z,68.20
2023-02-11T17:44:53.081Z,68.20
2023-02-11T17:47:22.102Z,68.10
2023-02-11T17:49:52.513Z,68.00
2023-02-11T17:52:21.692Z,67.90
2023-02-11T17:54:51.501Z,67.90
2023-02-11T17:57:20.542Z,67.90
2023-02-11T17:59:49.667Z,67.80
2023-02-11T18:02:19.461Z,67.80
2023-02-11T18:04:48.702Z,67.90
2023-02-11T18:07:19.984Z,67.80
2023-02-11T18:09:49.056Z,67.90
2023-02-11T18:12:25.125Z,67.90
2023-02-11T18:14:58.040Z,67.70
2023-02-11T18:17:27.382Z,67.50
2023-02-11T18:19:57.739Z,67.50
2023-02-11T18:22:28.198Z,67.40
2023-02-11T18:24:57.323Z,67.30
2023-02-11T18:27:28.168Z,67.10
2023-02-11T18:29:57.578Z,67.00
2023-02-11T18:32:26.739Z,67.00
2023-02-11T18:34:55.818Z,66.90
2023-02-11T18:37:25.441Z,66.80
2023-02-11T18:39:55.944Z,66.80
2023-02-11T18:42:25.010Z,66.70
2023-02-11T18:44:54.038Z,66.60
2023-02-11T18:47:24.173Z,66.60
2023-02-11T18:49:54.347Z,66.60
2023-02-11T18:52:23.570Z,66.50
2023-02-11T18:54:52.928Z,66.50
2023-02-11T18:57:23.464Z,66.50
2023-02-11T18:59:52.581Z,66.50
2023-02-11T19:02:21.781Z,66.50
2023-02-11T19:04:50.893Z,66.50
2023-02-11T19:07:20.069Z,66.50
2023-02-11T19:09:49.278Z,66.40
2023-02-11T19:12:18.384Z,66.40
2023-02-11T19:14:49.098Z,66.50
2023-02-11T19:17:18.363Z,66.60
2023-02-11T19:19:47.552Z,66.60
2023-02-11T19:22:18.956Z,66.70
2023-02-11T19:24:48.192Z,66.70
2023-02-11T19:27:17.368Z,66.70
2023-02-11T19:29:48.367Z,66.70
2023-02-11T19:32:17.999Z,66.70
2023-02-11T19:34:47.578Z,66.60
2023-02-11T19:37:16.758Z,66.60
2023-02-11T19:39:46.432Z,66.60
2023-02-11T19:42:22.565Z,66.40
2023-02-11T19:44:54.652Z,66.40
2023-02-11T19:47:27.942Z,66.30
2023-02-11T19:49:57.094Z,66.20
2023-02-11T19:52:26.509Z,66.00
2023-02-11T19:54:55.850Z,65.90
2023-02-11T19:57:25.264Z,65.60
2023-02-11T19:59:57.013Z,65.60
2023-02-11T20:02:26.305Z,65.60
2023-02-11T20:04:55.753Z,65.60
2023-02-11T20:07:25.071Z,65.60
2023-02-11T20:09:54.432Z,65.50
2023-02-11T20:12:23.523Z,65.60
2023-02-11T20:14:52.542Z,65.70
2023-02-11T20:17:23.160Z,65.70
2023-02-11T20:19:53.079Z,65.60
2023-02-11T20:22:22.304Z,65.60
2023-02-11T20:24:51.359Z,65.80
2023-02-11T20:27:20.440Z,65.80
2023-02-11T20:29:49.538Z,65.90
2023-02-11T20:32:18.677Z,65.90
2023-02-11T20:34:49.124Z,65.80
2023-02-11T20:37:18.753Z,65.90
2023-02-11T20:39:53.321Z,65.80
2023-02-11T20:42:22.492Z,65.80
2023-02-11T20:44:51.654Z,66.00
2023-02-11T20:47:20.847Z,66.00
2023-02-11T20:49:51.454Z,66.00
2023-02-11T20:52:20.488Z,66.10
2023-02-11T20:54:49.957Z,66.10
2023-02-11T20:57:19.214Z,66.10
2023-02-11T20:59:48.270Z,66.20
2023-02-11T21:02:17.416Z,66.30
2023-02-11T21:04:46.463Z,66.40
2023-02-11T21:07:16.902Z,66.50
2023-02-11T21:09:45.965Z,66.40
2023-02-11T21:12:15.099Z,66.40
2023-02-11T21:14:44.253Z,66.50
2023-02-11T21:17:13.491Z,66.70
2023-02-11T21:19:43.495Z,66.80
2023-02-11T21:22:12.576Z,67.00
2023-02-11T21:24:42.967Z,67.10
2023-02-11T21:27:12.289Z,67.10
2023-02-11T21:29:53.401Z,67.30
2023-02-11T21:32:23.638Z,67.30
2023-02-11T21:34:54.042Z,67.40
2023-02-11T21:37:23.903Z,67.40
2023-02-11T21:39:54.320Z,67.40
2023-02-11T21:42:23.380Z,67.30
2023-02-11T21:44:52.663Z,67.20
2023-02-11T21:47:21.677Z,67.30
2023-02-11T21:49:51.084Z,67.40
2023-02-11T21:52:20.173Z,67.50
2023-02-11T21:54:51.030Z,67.50
2023-02-11T21:57:21.561Z,67.60
2023-02-11T21:59:50.620Z,67.50
2023-02-11T22:02:19.764Z,67.70
2023-02-11T22:04:48.915Z,67.70
2023-02-11T22:07:18.466Z,67.60
2023-02-11T22:09:47.648Z,67.70
2023-02-11T22:12:16.754Z,67.70
2023-02-11T22:14:47.204Z,68.60
2023-02-11T22:17:16.347Z,67.90
2023-02-11T22:19:45.488Z,67.90
2023-02-11T22:22:18.256Z,67.90
2023-02-11T22:24:48.074Z,68.00
2023-02-11T22:27:20.275Z,68.20
2023-02-11T22:29:50.891Z,68.40
2023-02-11T22:32:20.107Z,68.50
2023-02-11T22:34:51.444Z,68.70
2023-02-11T22:37:22.343Z,68.80
2023-02-11T22:39:51.584Z,68.90
2023-02-11T22:42:20.740Z,69.00
2023-02-11T22:44:51.247Z,69.10
2023-02-11T22:47:20.295Z,69.10
2023-02-11T22:49:49.396Z,69.20
2023-02-11T22:52:18.412Z,69.30
2023-02-11T22:54:47.554Z,69.50
2023-02-11T22:57:16.540Z,70.00
2023-02-11T22:59:45.668Z,69.50
2023-02-11T23:02:16.300Z,69.70
2023-02-11T23:04:45.818Z,69.80
2023-02-11T23:07:16.125Z,70.00
2023-02-11T23:09:45.099Z,70.00
2023-02-11T23:12:14.152Z,70.00
2023-02-11T23:14:43.755Z,70.00
2023-02-11T23:17:12.765Z,70.10
2023-02-11T23:19:43.206Z,70.00
2023-02-11T23:22:12.449Z,70.10
2023-02-11T23:24:41.474Z,70.10
2023-02-11T23:27:10.507Z,70.20
2023-02-11T23:29:39.562Z,70.00
2023-02-11T23:32:08.614Z,70.00
2023-02-11T23:34:37.847Z,69.90
2023-02-11T23:37:11.304Z,69.80
2023-02-11T23:39:40.322Z,69.80
2023-02-11T23:42:09.400Z,69.90
2023-02-11T23:44:38.541Z,69.80
2023-02-11T23:47:07.562Z,69.70
2023-02-11T23:49:36.591Z,69.70
2023-02-11T23:52:07.024Z,69.70
2023-02-11T23:54:36.171Z,69.80
2023-02-11T23:57:05.364Z,69.80
2023-02-11T23:59:34.386Z,69.90
